sensor_id;sensor_type;location;lat;lon;timestamp;P1;durP1;ratioP1;P2;durP2;ratioP2
84735;SDS011;74966;47.920;13.802;2024-01-16T08:21:14;0.8;;;0.9;;
84735;SDS011;74966;47.920;13.802;2024-01-16T08:26:14;1.2;;;1.4;;
84735;SDS011;74966;47.920;13.802;2024-01-16T08:31:17;0.7;;;0.8;;
84735;SDS011;74966;47.920;13.802;2024-01-16T08:36:14;1.3;;;1.5;;
84735;SDS011;74966;47.920;13.802;2024-01-16T08:41:14;1.2;;;1.5;;
84735;SDS011;74966;47.920;13.802;2024-01-16T08:46:14;1.1;;;1.3;;
84735;SDS011;74966;47.920;13.802;2024-01-16T08:51:14;0.9;;;1.1;;
84735;SDS011;74966;47.920;13.802;2024-01-16T08:56:14;1.7;;;2.2;;
84735;SDS011;74966;47.920;13.802;2024-01-16T09:01:14;1.3;;;1.7;;
84735;SDS011;74966;47.920;13.802;2024-01-16T09:06:14;1.5;;;2.0;;
84735;SDS011;74966;47.920;13.802;2024-01-16T09:11:14;1.2;;;1.5;;
84735;SDS011;74966;47.920;13.802;2024-01-16T09:16:14;1.4;;;1.6;;
84735;SDS011;74966;47.920;13.802;2024-01-16T09:21:14;1.3;;;1.5;;
84735;SDS011;74966;47.920;13.802;2024-01-16T09:26:14;1.6;;;1.8;;
84735;SDS011;74966;47.920;13.802;2024-01-16T09:31:15;1.5;;;1.7;;
84735;SDS011;74966;47.920;13.802;2024-01-16T09:36:14;1.7;;;1.9;;
84735;SDS011;74966;47.920;13.802;2024-01-16T09:41:14;1.2;;;1.3;;
84735;SDS011;74966;47.920;13.802;2024-01-16T09:46:14;1.2;;;1.3;;
84735;SDS011;74966;47.920;13.802;2024-01-16T09:51:14;1.5;;;1.6;;
84735;SDS011;74966;47.920;13.802;2024-01-16T09:56:15;1.3;;;1.4;;
84735;SDS011;74966;47.920;13.802;2024-01-16T10:01:14;1.3;;;1.6;;
84735;SDS011;74966;47.920;13.802;2024-01-16T10:06:14;1.3;;;1.5;;
84735;SDS011;74966;47.920;13.802;2024-01-16T10:11:14;1.1;;;1.2;;
84735;SDS011;74966;47.920;13.802;2024-01-16T10:16:14;1.1;;;1.3;;
84735;SDS011;74966;47.920;13.802;2024-01-16T10:21:20;1.5;;;1.7;;
84735;SDS011;74966;47.920;13.802;2024-01-16T10:26:14;1.3;;;1.5;;
84735;SDS011;74966;47.920;13.802;2024-01-16T10:31:14;1.2;;;1.3;;
84735;SDS011;74966;47.920;13.802;2024-01-16T10:36:14;1.4;;;1.5;;
84735;SDS011;74966;47.920;13.802;2024-01-16T10:41:15;1.4;;;1.5;;
84735;SDS011;74966;47.920;13.802;2024-01-16T10:46:14;1.4;;;1.4;;
84735;SDS011;74966;47.920;13.802;2024-01-16T10:51:14;1.6;;;1.8;;
84735;SDS011;74966;47.920;13.802;2024-01-16T10:56:14;1.1;;;1.2;;
84735;SDS011;74966;47.920;13.802;2024-01-16T11:01:15;0.9;;;0.9;;
84735;SDS011;74966;47.920;13.802;2024-01-16T11:06:14;1.3;;;1.4;;
84735;SDS011;74966;47.920;13.802;2024-01-16T11:11:14;1.0;;;1.0;;
84735;SDS011;74966;47.920;13.802;2024-01-16T11:16:14;0.9;;;1.0;;
84735;SDS011;74966;47.920;13.802;2024-01-16T11:21:14;1.1;;;1.1;;
84735;SDS011;74966;47.920;13.802;2024-01-16T11:31:28;0.9;;;0.9;;
84735;SDS011;74966;47.920;13.802;2024-01-16T11:41:21;1.1;;;1.2;;
84735;SDS011;74966;47.920;13.802;2024-01-16T11:46:14;0.9;;;1.0;;
84735;SDS011;74966;47.920;13.802;2024-01-16T11:56:20;1.9;;;2.0;;
84735;SDS011;74966;47.920;13.802;2024-01-16T12:01:14;1.4;;;1.5;;
84735;SDS011;74966;47.920;13.802;2024-01-16T12:21:13;1.8;;;2.0;;
84735;SDS011;74966;47.920;13.802;2024-01-16T12:26:20;1.4;;;1.6;;
84735;SDS011;74966;47.920;13.802;2024-01-16T12:31:18;1.5;;;1.8;;
84735;SDS011;74966;47.920;13.802;2024-01-16T12:36:14;1.3;;;1.4;;
84735;SDS011;74966;47.920;13.802;2024-01-16T12:41:14;1.4;;;1.6;;
84735;SDS011;74966;47.920;13.802;2024-01-16T12:46:14;1.5;;;1.7;;
84735;SDS011;74966;47.920;13.802;2024-01-16T12:51:21;1.5;;;1.6;;
84735;SDS011;74966;47.920;13.802;2024-01-16T12:56:17;1.4;;;1.5;;
84735;SDS011;74966;47.920;13.802;2024-01-16T13:06:17;1.2;;;1.3;;
84735;SDS011;74966;47.920;13.802;2024-01-16T13:21:14;1.3;;;1.4;;
84735;SDS011;74966;47.920;13.802;2024-01-16T13:26:14;1.2;;;1.3;;
84735;SDS011;74966;47.920;13.802;2024-01-16T13:31:14;1.7;;;1.8;;
84735;SDS011;74966;47.920;13.802;2024-01-16T13:36:14;1.1;;;1.2;;
84735;SDS011;74966;47.920;13.802;2024-01-16T13:51:14;1.0;;;1.0;;
84735;SDS011;74966;47.920;13.802;2024-01-16T14:11:13;1.0;;;1.0;;
84735;SDS011;74966;47.920;13.802;2024-01-16T14:16:14;1.0;;;1.0;;
84735;SDS011;74966;47.920;13.802;2024-01-16T14:36:14;1.3;;;1.4;;
84735;SDS011;74966;47.920;13.802;2024-01-16T14:41:14;0.8;;;0.8;;
84735;SDS011;74966;47.920;13.802;2024-01-16T14:56:14;1.0;;;1.0;;
84735;SDS011;74966;47.920;13.802;2024-01-16T15:16:14;1.2;;;1.3;;
84735;SDS011;74966;47.920;13.802;2024-01-16T16:01:14;1.1;;;1.2;;
84735;SDS011;74966;47.920;13.802;2024-01-16T16:21:14;0.9;;;1.0;;
84735;SDS011;74966;47.920;13.802;2024-01-16T16:41:16;0.9;;;0.9;;
84735;SDS011;74966;47.920;13.802;2024-01-16T16:46:15;1.1;;;1.2;;
84735;SDS011;74966;47.920;13.802;2024-01-16T16:51:15;1.2;;;1.2;;
84735;SDS011;74966;47.920;13.802;2024-01-16T16:56:15;0.8;;;0.8;;
84735;SDS011;74966;47.920;13.802;2024-01-16T17:01:15;1.1;;;1.1;;
84735;SDS011;74966;47.920;13.802;2024-01-16T17:06:14;1.2;;;1.2;;
84735;SDS011;74966;47.920;13.802;2024-01-16T17:11:14;1.2;;;1.4;;
84735;SDS011;74966;47.920;13.802;2024-01-16T17:16:14;1.2;;;1.3;;
84735;SDS011;74966;47.920;13.802;2024-01-16T17:21:14;1.4;;;1.6;;
84735;SDS011;74966;47.920;13.802;2024-01-16T17:26:14;1.4;;;1.5;;
84735;SDS011;74966;47.920;13.802;2024-01-16T17:31:14;1.2;;;1.2;;
84735;SDS011;74966;47.920;13.802;2024-01-16T17:36:14;1.2;;;1.3;;
84735;SDS011;74966;47.920;13.802;2024-01-16T17:41:14;1.4;;;1.4;;
84735;SDS011;74966;47.920;13.802;2024-01-16T17:46:14;1.4;;;1.5;;
84735;SDS011;74966;47.920;13.802;2024-01-16T17:51:14;1.2;;;1.3;;
84735;SDS011;74966;47.920;13.802;2024-01-16T17:56:14;0.9;;;1.0;;
84735;SDS011;74966;47.920;13.802;2024-01-16T18:01:14;1.6;;;1.6;;
84735;SDS011;74966;47.920;13.802;2024-01-16T18:06:14;1.4;;;1.5;;
84735;SDS011;74966;47.920;13.802;2024-01-16T18:11:14;6.9;;;6.9;;
84735;SDS011;74966;47.920;13.802;2024-01-16T18:16:14;8.7;;;8.7;;
84735;SDS011;74966;47.920;13.802;2024-01-16T18:21:14;6.5;;;6.5;;
84735;SDS011;74966;47.920;13.802;2024-01-16T18:26:14;6.7;;;6.7;;
84735;SDS011;74966;47.920;13.802;2024-01-16T18:31:14;6.4;;;6.4;;
84735;SDS011;74966;47.920;13.802;2024-01-16T18:36:14;6.7;;;6.7;;
84735;SDS011;74966;47.920;13.802;2024-01-16T18:41:14;5.8;;;5.8;;
84735;SDS011;74966;47.920;13.802;2024-01-16T18:46:14;6.1;;;6.1;;
84735;SDS011;74966;47.920;13.802;2024-01-16T18:51:14;7.2;;;7.3;;
84735;SDS011;74966;47.920;13.802;2024-01-16T18:56:14;5.7;;;5.7;;
84735;SDS011;74966;47.920;13.802;2024-01-16T19:01:15;6.0;;;6.0;;
84735;SDS011;74966;47.920;13.802;2024-01-16T19:06:14;6.7;;;6.7;;
84735;SDS011;74966;47.920;13.802;2024-01-16T19:11:14;6.4;;;6.4;;
84735;SDS011;74966;47.920;13.802;2024-01-16T19:16:15;5.9;;;5.9;;
84735;SDS011;74966;47.920;13.802;2024-01-16T19:21:15;6.2;;;6.2;;
84735;SDS011;74966;47.920;13.802;2024-01-16T19:26:14;6.8;;;6.8;;
84735;SDS011;74966;47.920;13.802;2024-01-16T19:31:14;6.1;;;6.2;;
84735;SDS011;74966;47.920;13.802;2024-01-16T19:36:14;6.3;;;6.4;;
84735;SDS011;74966;47.920;13.802;2024-01-16T19:41:14;6.3;;;6.3;;
84735;SDS011;74966;47.920;13.802;2024-01-16T19:46:14;5.7;;;5.8;;
84735;SDS011;74966;47.920;13.802;2024-01-16T19:51:14;5.5;;;5.5;;
84735;SDS011;74966;47.920;13.802;2024-01-16T19:56:14;5.8;;;5.8;;
84735;SDS011;74966;47.920;13.802;2024-01-16T20:01:14;6.2;;;6.2;;
84735;SDS011;74966;47.920;13.802;2024-01-16T20:06:14;5.8;;;5.8;;
84735;SDS011;74966;47.920;13.802;2024-01-16T20:11:14;5.9;;;6.0;;
84735;SDS011;74966;47.920;13.802;2024-01-16T20:16:14;5.7;;;5.8;;
84735;SDS011;74966;47.920;13.802;2024-01-16T20:21:14;6.1;;;6.1;;
84735;SDS011;74966;47.920;13.802;2024-01-16T20:26:14;6.4;;;6.5;;
84735;SDS011;74966;47.920;13.802;2024-01-16T20:31:14;5.6;;;5.6;;
84735;SDS011;74966;47.920;13.802;2024-01-16T20:36:14;6.6;;;6.6;;
84735;SDS011;74966;47.920;13.802;2024-01-16T20:41:14;5.4;;;5.5;;
84735;SDS011;74966;47.920;13.802;2024-01-16T20:46:14;6.2;;;6.2;;
84735;SDS011;74966;47.920;13.802;2024-01-16T20:51:14;5.1;;;5.1;;
84735;SDS011;74966;47.920;13.802;2024-01-16T20:56:14;5.7;;;5.8;;
84735;SDS011;74966;47.920;13.802;2024-01-16T21:01:14;6.3;;;6.3;;
84735;SDS011;74966;47.920;13.802;2024-01-16T21:06:14;6.1;;;6.2;;
84735;SDS011;74966;47.920;13.802;2024-01-16T21:11:14;7.0;;;7.0;;
84735;SDS011;74966;47.920;13.802;2024-01-16T21:16:15;6.5;;;6.6;;
84735;SDS011;74966;47.920;13.802;2024-01-16T21:21:14;6.2;;;6.2;;
84735;SDS011;74966;47.920;13.802;2024-01-16T21:26:14;6.6;;;6.7;;
84735;SDS011;74966;47.920;13.802;2024-01-16T21:31:14;6.5;;;6.6;;
84735;SDS011;74966;47.920;13.802;2024-01-16T21:36:14;5.9;;;5.9;;
84735;SDS011;74966;47.920;13.802;2024-01-16T21:41:14;7.3;;;7.3;;
84735;SDS011;74966;47.920;13.802;2024-01-16T21:46:14;6.2;;;6.2;;
84735;SDS011;74966;47.920;13.802;2024-01-16T21:51:14;6.3;;;6.4;;
84735;SDS011;74966;47.920;13.802;2024-01-16T21:56:14;5.8;;;5.9;;
84735;SDS011;74966;47.920;13.802;2024-01-16T22:01:14;6.1;;;6.2;;
84735;SDS011;74966;47.920;13.802;2024-01-16T22:06:14;5.8;;;5.8;;
84735;SDS011;74966;47.920;13.802;2024-01-16T22:11:14;5.3;;;5.3;;
84735;SDS011;74966;47.920;13.802;2024-01-16T22:16:14;6.4;;;6.5;;
84735;SDS011;74966;47.920;13.802;2024-01-16T22:21:14;6.2;;;6.2;;
84735;SDS011;74966;47.920;13.802;2024-01-16T22:26:14;5.4;;;5.4;;
84735;SDS011;74966;47.920;13.802;2024-01-16T22:31:14;6.6;;;6.6;;
84735;SDS011;74966;47.920;13.802;2024-01-16T22:36:14;5.4;;;5.4;;
84735;SDS011;74966;47.920;13.802;2024-01-16T22:41:14;6.1;;;6.1;;
84735;SDS011;74966;47.920;13.802;2024-01-16T22:46:14;6.7;;;6.7;;
84735;SDS011;74966;47.920;13.802;2024-01-16T22:51:14;5.3;;;5.3;;
84735;SDS011;74966;47.920;13.802;2024-01-16T22:56:14;5.7;;;5.7;;
84735;SDS011;74966;47.920;13.802;2024-01-16T23:01:14;4.9;;;4.9;;
84735;SDS011;74966;47.920;13.802;2024-01-16T23:06:16;5.2;;;5.2;;
84735;SDS011;74966;47.920;13.802;2024-01-16T23:11:15;5.5;;;5.5;;
84735;SDS011;74966;47.920;13.802;2024-01-16T23:16:14;5.4;;;5.4;;
84735;SDS011;74966;47.920;13.802;2024-01-16T23:21:14;5.4;;;5.4;;
84735;SDS011;74966;47.920;13.802;2024-01-16T23:26:14;5.6;;;5.6;;
84735;SDS011;74966;47.920;13.802;2024-01-16T23:31:14;4.4;;;4.4;;
84735;SDS011;74966;47.920;13.802;2024-01-16T23:36:15;4.7;;;4.7;;
84735;SDS011;74966;47.920;13.802;2024-01-16T23:41:14;5.7;;;5.8;;
84735;SDS011;74966;47.920;13.802;2024-01-16T23:46:14;5.5;;;5.6;;
84735;SDS011;74966;47.920;13.802;2024-01-16T23:51:14;5.0;;;5.0;;
84735;SDS011;74966;47.920;13.802;2024-01-16T23:56:14;5.0;;;5.0;;
